LLBG/TLV METAR and TAF weather

Enter ICAO airport designator
Station Type Date Time Source
LLBG METAR 2022/11/27 07:20 UTC NOAA

LLBG 270720Z VRB02KT CAVOK 19/11 Q1017 NOSIG


Station Type Date Time Source
LLBG Decoded METAR 2022/11/27 07:20 UTC NOAA

Ben-Gurion International Airport, Israel (LLBG) 32-00N 034-54E 49M
Nov 27, 2022 - 02:20 AM EST / 2022.11.27 0720 UTC
Wind: Variable at 2 MPH (2 KT):0
Visibility: greater than 7 mile(s):0
Temperature: 66 F (19 C)
Dew Point: 51 F (11 C)
Relative Humidity: 59%
Pressure (altimeter): 30.03 in. Hg (1017 hPa)
ob: LLBG 270720Z VRB02KT CAVOK 19/11 Q1017 NOSIG
cycle: 7

Station Type Date Time Source
LLBG TAF 2022/11/27 06:06 UTC NOAA

TAF TAF LLBG 270502Z 2706/2806 10005KT CAVOK
BECMG 2710/2712 36007KT
BECMG 2715/2717 04005KT
TEMPO 2721/2806 VRB03KT TX23/2711Z TN15/2804Z

Example: see airport list